Været på Ålesund Lufhavn, Vigra (ENAL)

 

Time for time, neste 48 timer:

Detaljert varsel fra yr.no - 48 timer

Vindprognose for Breisundet:

Vindvarsel

Upper Winds 3000 fot akkurat nå:

ENAL akkurat nå:

  • METAR: 061750Z AUTO 05005KT 9999 BKN070/// BKN092/// OVC110/// 14/10 Q0991
  • TAF: TAF 061400Z 0615/0618 36010KT 9999 -RA FEW015 SCT030 BKN060